Time;durP1;ratioP1;P1;durP2;ratioP2;P2;SDS_P1;SDS_P2;PMS_P1;PMS_P2;Temp;Humidity;BMP_temperature;BMP_pressure;BME280_temperature;BME280_humidity;BME280_pressure;Samples;Min_cycle;Max_cycle;Signal;HPM_P1;HPM_P2
2023/08/25 00:01:20;;;;;;;26.60;23.85;;;;;;;;;;5055896;28;20040;-63
2023/08/25 00:03:47;;;;;;;31.98;27.17;;;;;;;;;;5056102;28;20549;-63
2023/08/25 00:06:13;;;;;;;28.10;25.13;;;;;;;;;;5057799;28;20072;-63
2023/08/25 00:08:40;;;;;;;29.02;26.08;;;;;;;;;;5055297;28;20032;-63
2023/08/25 00:11:09;;;;;;;29.73;26.63;;;;;;;;;;5056076;28;20048;-63
2023/08/25 00:13:35;;;;;;;32.80;29.33;;;;;;;;;;5055928;28;20076;-63
2023/08/25 00:16:04;;;;;;;31.02;27.63;;;;;;;;;;5056058;28;20047;-63
2023/08/25 00:18:31;;;;;;;30.98;27.45;;;;;;;;;;5055955;28;20650;-63
2023/08/25 00:20:57;;;;;;;30.70;27.67;;;;;;;;;;5055094;28;20054;-63
2023/08/25 00:23:23;;;;;;;39.45;27.17;;;;;;;;;;5056643;28;20035;-63
2023/08/25 00:25:49;;;;;;;32.08;28.25;;;;;;;;;;5055971;28;20040;-67
2023/08/25 00:28:15;;;;;;;33.78;28.88;;;;;;;;;;5056536;28;20044;-63
2023/08/25 00:30:41;;;;;;;34.20;30.48;;;;;;;;;;5057532;28;20074;-63
2023/08/25 00:33:07;;;;;;;34.53;31.00;;;;;;;;;;5056551;28;20036;-63
2023/08/25 00:35:33;;;;;;;31.50;28.23;;;;;;;;;;5055488;28;20024;-63
2023/08/25 00:37:59;;;;;;;32.55;29.00;;;;;;;;;;5055863;28;20036;-66
2023/08/25 00:40:26;;;;;;;31.50;28.30;;;;;;;;;;5056954;28;20115;-67
2023/08/25 00:42:52;;;;;;;33.90;28.80;;;;;;;;;;5056980;28;21574;-67
2023/08/25 00:45:18;;;;;;;32.47;29.17;;;;;;;;;;5057364;28;20954;-67
2023/08/25 00:47:44;;;;;;;35.53;30.60;;;;;;;;;;5056863;28;20037;-67
2023/08/25 00:50:11;;;;;;;34.78;31.05;;;;;;;;;;5055825;28;20044;-67
2023/08/25 00:52:37;;;;;;;35.08;31.38;;;;;;;;;;5061046;28;21864;-66
2023/08/25 00:55:04;;;;;;;38.90;33.88;;;;;;;;;;5060490;28;20069;-66
2023/08/25 00:57:31;;;;;;;32.13;28.85;;;;;;;;;;5060657;28;21484;-67
2023/08/25 00:59:57;;;;;;;33.58;30.05;;;;;;;;;;5061508;28;20471;-67
2023/08/25 01:02:24;;;;;;;37.05;31.33;;;;;;;;;;5060800;28;20036;-67
2023/08/25 01:04:50;;;;;;;37.35;32.78;;;;;;;;;;5060758;28;20044;-67
2023/08/25 01:07:16;;;;;;;36.85;32.92;;;;;;;;;;5061169;28;20053;-67
2023/08/25 01:09:43;;;;;;;35.00;31.48;;;;;;;;;;5059233;28;20623;-67
2023/08/25 01:12:27;;;;;;;35.17;31.05;;;;;;;;;;5060818;28;21380;-67
2023/08/25 01:15:02;;;;;;;35.55;31.77;;;;;;;;;;5059580;28;20108;-66
2023/08/25 01:17:43;;;;;;;36.92;31.88;;;;;;;;;;5061012;28;20078;-67
2023/08/25 01:20:10;;;;;;;34.80;30.17;;;;;;;;;;5060340;28;20036;-67
2023/08/25 01:22:52;;;;;;;38.15;32.63;;;;;;;;;;5059970;28;21265;-67
2023/08/25 01:25:28;;;;;;;38.15;32.55;;;;;;;;;;5059858;28;20031;-67
2023/08/25 01:27:58;;;;;;;35.90;31.73;;;;;;;;;;5059741;28;20029;-67
2023/08/25 01:30:30;;;;;;;33.35;29.90;;;;;;;;;;5060974;28;20521;-67
2023/08/25 01:32:57;;;;;;;35.28;31.42;;;;;;;;;;5060674;28;20103;-67
2023/08/25 01:35:35;;;;;;;35.63;30.40;;;;;;;;;;5059958;28;20035;-67
2023/08/25 01:38:07;;;;;;;38.13;30.48;;;;;;;;;;5061590;28;20058;-67
2023/08/25 01:40:52;;;;;;;35.85;32.00;;;;;;;;;;5059753;28;20693;-67
2023/08/25 01:43:21;;;;;;;35.72;31.85;;;;;;;;;;5059765;28;20024;-63
2023/08/25 01:45:49;;;;;;;34.10;30.13;;;;;;;;;;5059639;28;20036;-63
2023/08/25 01:48:15;;;;;;;35.97;32.17;;;;;;;;;;5059684;28;20063;-65
2023/08/25 01:50:42;;;;;;;29.80;26.60;;;;;;;;;;5060321;28;20051;-63
2023/08/25 01:53:09;;;;;;;38.00;32.58;;;;;;;;;;5060118;28;20789;-63
2023/08/25 01:55:35;;;;;;;38.10;33.10;;;;;;;;;;5058100;28;20114;-63
2023/08/25 01:58:03;;;;;;;33.58;30.00;;;;;;;;;;5059014;28;20931;-63
2023/08/25 02:00:29;;;;;;;34.58;29.75;;;;;;;;;;5059026;28;20131;-63
2023/08/25 02:02:55;;;;;;;40.53;33.08;;;;;;;;;;5059386;28;20831;-68
2023/08/25 02:05:22;;;;;;;37.38;31.05;;;;;;;;;;5060289;28;21084;-67
2023/08/25 02:07:48;;;;;;;34.47;29.25;;;;;;;;;;5055968;28;20032;-66
2023/08/25 02:10:14;;;;;;;31.98;28.38;;;;;;;;;;5058039;28;21093;-66
2023/08/25 02:12:40;;;;;;;34.55;30.05;;;;;;;;;;5058758;28;22041;-67
2023/08/25 02:15:06;;;;;;;36.45;31.02;;;;;;;;;;5058833;28;21017;-67
2023/08/25 02:17:35;;;;;;;33.72;30.15;;;;;;;;;;5058085;28;20044;-67
2023/08/25 02:20:04;;;;;;;36.67;31.80;;;;;;;;;;5058813;28;20126;-63
2023/08/25 02:22:30;;;;;;;35.13;30.90;;;;;;;;;;5059323;28;20073;-63
2023/08/25 02:24:56;;;;;;;39.30;32.05;;;;;;;;;;5058760;28;20036;-63
2023/08/25 02:27:22;;;;;;;36.75;31.38;;;;;;;;;;5059860;28;20036;-63
2023/08/25 02:29:48;;;;;;;33.25;29.42;;;;;;;;;;5058573;28;20028;-63
2023/08/25 02:32:14;;;;;;;34.05;29.25;;;;;;;;;;5059591;28;20036;-63
2023/08/25 02:34:40;;;;;;;36.42;32.45;;;;;;;;;;5056366;28;20046;-66
2023/08/25 02:37:06;;;;;;;35.33;31.17;;;;;;;;;;5058593;28;20032;-66
2023/08/25 02:39:32;;;;;;;35.42;30.40;;;;;;;;;;5058635;28;20047;-67
2023/08/25 02:41:59;;;;;;;38.50;32.42;;;;;;;;;;5059576;28;20036;-67
2023/08/25 02:44:25;;;;;;;34.85;30.98;;;;;;;;;;5059823;28;20067;-66
2023/08/25 02:46:51;;;;;;;35.65;31.52;;;;;;;;;;5057633;28;20051;-67
2023/08/25 02:49:17;;;;;;;41.20;33.55;;;;;;;;;;5060146;28;20063;-66
2023/08/25 02:51:43;;;;;;;37.72;32.22;;;;;;;;;;5058002;28;20068;-67
2023/08/25 02:54:09;;;;;;;38.92;34.42;;;;;;;;;;5058027;28;20035;-67
2023/08/25 02:56:35;;;;;;;39.63;33.40;;;;;;;;;;5058922;28;20024;-66
2023/08/25 02:59:02;;;;;;;38.45;32.47;;;;;;;;;;5058739;28;20193;-66
2023/08/25 03:01:28;;;;;;;39.70;34.63;;;;;;;;;;5058118;28;20079;-66
2023/08/25 03:03:55;;;;;;;38.42;33.53;;;;;;;;;;5056318;28;20044;-67
2023/08/25 03:06:21;;;;;;;38.58;32.88;;;;;;;;;;5058936;28;20051;-67
2023/08/25 03:08:48;;;;;;;38.83;34.17;;;;;;;;;;5057951;28;20044;-67
2023/08/25 03:11:14;;;;;;;36.42;32.38;;;;;;;;;;5057391;28;20398;-66
2023/08/25 03:13:40;;;;;;;41.90;32.92;;;;;;;;;;5058643;28;20025;-66
2023/08/25 03:16:07;;;;;;;39.13;34.42;;;;;;;;;;5059139;28;20042;-67
2023/08/25 03:18:33;;;;;;;41.38;33.53;;;;;;;;;;5057301;28;20047;-66
2023/08/25 03:21:00;;;;;;;38.22;34.10;;;;;;;;;;5057155;28;21535;-63
2023/08/25 03:23:29;;;;;;;38.75;34.60;;;;;;;;;;5057738;28;20040;-66
2023/08/25 03:25:55;;;;;;;41.50;34.92;;;;;;;;;;5056349;28;20024;-66
2023/08/25 03:28:21;;;;;;;42.35;33.33;;;;;;;;;;5058047;28;20089;-66
2023/08/25 03:30:51;;;;;;;45.58;34.88;;;;;;;;;;5058823;28;20039;-67
2023/08/25 03:33:17;;;;;;;43.25;35.47;;;;;;;;;;5057305;28;20028;-66
2023/08/25 03:35:43;;;;;;;40.45;34.50;;;;;;;;;;5058923;28;20028;-63
2023/08/25 03:38:09;;;;;;;43.95;36.17;;;;;;;;;;5058744;28;20032;-63
2023/08/25 03:40:35;;;;;;;40.65;34.38;;;;;;;;;;5059169;28;20040;-66
2023/08/25 03:43:01;;;;;;;41.53;34.65;;;;;;;;;;5057721;28;20043;-67
2023/08/25 03:45:27;;;;;;;41.47;34.60;;;;;;;;;;5058493;28;20125;-67
2023/08/25 03:47:53;;;;;;;40.28;33.40;;;;;;;;;;5058226;28;20108;-66
2023/08/25 03:50:20;;;;;;;42.38;34.85;;;;;;;;;;5058437;28;20435;-66
2023/08/25 03:52:49;;;;;;;38.28;33.40;;;;;;;;;;5057127;28;20127;-63
2023/08/25 03:55:15;;;;;;;47.20;36.53;;;;;;;;;;5058099;28;20034;-63
2023/08/25 03:57:41;;;;;;;40.35;34.92;;;;;;;;;;5058040;28;20612;-63
2023/08/25 04:00:07;;;;;;;43.80;35.88;;;;;;;;;;5059136;28;20123;-63
2023/08/25 04:02:33;;;;;;;41.45;34.47;;;;;;;;;;5058409;28;20038;-63
2023/08/25 04:05:00;;;;;;;45.72;34.60;;;;;;;;;;5057095;28;20036;-63
2023/08/25 04:07:26;;;;;;;37.28;32.53;;;;;;;;;;5058432;28;20047;-63
2023/08/25 04:09:55;;;;;;;45.13;34.33;;;;;;;;;;5058445;28;20069;-63
2023/08/25 04:12:21;;;;;;;42.83;35.28;;;;;;;;;;5057704;28;21552;-63
2023/08/25 04:14:49;;;;;;;46.95;36.90;;;;;;;;;;5057209;28;20071;-63
2023/08/25 04:17:15;;;;;;;39.22;34.72;;;;;;;;;;5057721;28;20042;-63
2023/08/25 04:19:41;;;;;;;42.63;34.25;;;;;;;;;;5057946;28;20036;-63
2023/08/25 04:22:07;;;;;;;43.03;35.55;;;;;;;;;;5056130;28;20024;-63
2023/08/25 04:24:33;;;;;;;43.97;36.08;;;;;;;;;;5057204;28;20036;-63
2023/08/25 04:26:59;;;;;;;43.65;36.03;;;;;;;;;;5060920;28;20038;-62
2023/08/25 04:29:25;;;;;;;40.40;33.58;;;;;;;;;;5062068;28;20040;-66
2023/08/25 04:31:51;;;;;;;46.15;35.50;;;;;;;;;;5059559;28;20043;-67
2023/08/25 04:34:17;;;;;;;48.10;36.33;;;;;;;;;;5062259;28;20029;-67
2023/08/25 04:36:45;;;;;;;48.20;39.42;;;;;;;;;;5058346;28;20036;-66
2023/08/25 04:39:13;;;;;;;48.28;36.33;;;;;;;;;;5061858;28;20505;-66
2023/08/25 04:41:40;;;;;;;46.30;36.63;;;;;;;;;;5061659;28;21827;-66
2023/08/25 04:44:06;;;;;;;44.42;35.17;;;;;;;;;;5062253;28;20039;-67
2023/08/25 04:46:32;;;;;;;42.65;34.30;;;;;;;;;;5062553;28;20114;-67
2023/08/25 04:48:58;;;;;;;43.08;36.03;;;;;;;;;;5063275;28;20115;-67
2023/08/25 04:51:24;;;;;;;44.13;34.08;;;;;;;;;;5064476;28;20048;-67
2023/08/25 04:53:50;;;;;;;43.38;34.30;;;;;;;;;;5064575;28;20216;-68
2023/08/25 04:56:17;;;;;;;46.85;36.75;;;;;;;;;;5062485;28;20572;-67
2023/08/25 04:58:46;;;;;;;41.13;34.15;;;;;;;;;;5076982;28;20032;-67
2023/08/25 05:01:13;;;;;;;50.08;35.72;;;;;;;;;;5060775;28;22075;-67
2023/08/25 05:03:39;;;;;;;44.88;34.78;;;;;;;;;;5061633;28;20067;-67
2023/08/25 05:06:05;;;;;;;47.03;36.15;;;;;;;;;;5062990;28;20052;-67
2023/08/25 05:08:31;;;;;;;49.13;38.28;;;;;;;;;;5061427;28;20032;-67
2023/08/25 05:10:57;;;;;;;52.72;38.90;;;;;;;;;;5061940;28;20040;-67
2023/08/25 05:13:23;;;;;;;58.83;41.53;;;;;;;;;;5064414;28;20036;-67
2023/08/25 05:15:50;;;;;;;45.28;35.47;;;;;;;;;;5063105;28;20036;-67
2023/08/25 05:18:16;;;;;;;47.58;37.20;;;;;;;;;;5063027;28;20028;-67
2023/08/25 05:20:42;;;;;;;48.70;36.88;;;;;;;;;;5061395;28;20162;-67
2023/08/25 05:23:08;;;;;;;46.92;35.05;;;;;;;;;;5061837;28;20043;-67
2023/08/25 05:25:34;;;;;;;49.03;38.90;;;;;;;;;;5063740;28;20118;-67
2023/08/25 05:28:00;;;;;;;47.72;37.30;;;;;;;;;;5063253;28;20036;-67
2023/08/25 05:30:26;;;;;;;53.25;38.38;;;;;;;;;;5064126;28;20062;-66
2023/08/25 05:32:52;;;;;;;51.90;39.10;;;;;;;;;;5064549;28;20032;-68
2023/08/25 05:35:18;;;;;;;53.47;40.47;;;;;;;;;;5060297;28;20029;-67
2023/08/25 05:37:44;;;;;;;50.58;38.00;;;;;;;;;;5059098;28;20580;-67
2023/08/25 05:40:12;;;;;;;53.00;39.60;;;;;;;;;;5060955;28;20028;-67
2023/08/25 05:42:38;;;;;;;51.22;39.03;;;;;;;;;;5060612;28;20028;-68
2023/08/25 05:45:05;;;;;;;52.88;38.72;;;;;;;;;;5056900;28;20031;-68
2023/08/25 05:47:31;;;;;;;53.42;39.42;;;;;;;;;;5062180;28;20237;-67
2023/08/25 05:49:57;;;;;;;48.83;36.60;;;;;;;;;;5060905;28;20026;-67
2023/08/25 05:52:24;;;;;;;47.38;37.67;;;;;;;;;;5062090;28;20028;-67
2023/08/25 05:54:50;;;;;;;50.13;36.33;;;;;;;;;;5062592;28;21810;-67
2023/08/25 05:57:16;;;;;;;50.92;38.53;;;;;;;;;;5063098;28;20032;-67
2023/08/25 05:59:42;;;;;;;47.15;37.10;;;;;;;;;;5061774;28;20093;-67
2023/08/25 06:02:09;;;;;;;46.28;37.08;;;;;;;;;;5061100;28;20039;-67
2023/08/25 06:04:35;;;;;;;51.75;38.63;;;;;;;;;;5061555;28;20036;-67
2023/08/25 06:07:01;;;;;;;48.38;37.78;;;;;;;;;;5060542;28;20089;-67
2023/08/25 06:09:27;;;;;;;49.50;37.50;;;;;;;;;;5061059;28;20084;-67
2023/08/25 06:11:53;;;;;;;47.35;38.45;;;;;;;;;;5060880;28;20032;-64
2023/08/25 06:14:20;;;;;;;53.97;38.70;;;;;;;;;;5056676;28;20035;-64
2023/08/25 06:16:46;;;;;;;54.03;40.65;;;;;;;;;;5059102;28;21327;-67
2023/08/25 06:19:14;;;;;;;56.30;41.15;;;;;;;;;;5059131;28;20042;-67
2023/08/25 06:21:40;;;;;;;54.75;41.95;;;;;;;;;;5059339;28;20028;-67
2023/08/25 06:24:06;;;;;;;54.20;40.47;;;;;;;;;;5073277;28;20467;-73
2023/08/25 06:26:35;;;;;;;62.63;40.30;;;;;;;;;;5057176;28;20032;-65
2023/08/25 06:29:01;;;;;;;61.53;42.17;;;;;;;;;;5056520;28;20036;-65
2023/08/25 06:31:30;;;;;;;55.70;41.88;;;;;;;;;;5047265;28;20036;-64
2023/08/25 06:33:56;;;;;;;61.97;42.78;;;;;;;;;;5046091;28;20032;-64
2023/08/25 06:36:22;;;;;;;62.88;44.47;;;;;;;;;;5048629;28;20032;-64
2023/08/25 06:38:48;;;;;;;61.08;42.92;;;;;;;;;;5049641;28;20040;-64
2023/08/25 06:41:14;;;;;;;64.07;43.08;;;;;;;;;;5047008;28;20313;-64
2023/08/25 06:43:43;;;;;;;59.03;41.25;;;;;;;;;;5047701;28;20040;-64
2023/08/25 06:46:12;;;;;;;55.88;40.53;;;;;;;;;;5048283;28;20056;-64
2023/08/25 06:48:41;;;;;;;58.50;42.33;;;;;;;;;;5048957;28;20558;-64
2023/08/25 06:51:07;;;;;;;54.47;39.22;;;;;;;;;;5048354;28;20496;-64
2023/08/25 06:53:33;;;;;;;54.42;40.65;;;;;;;;;;5049419;28;20028;-64
2023/08/25 06:55:59;;;;;;;58.03;40.47;;;;;;;;;;5046327;28;20867;-65
2023/08/25 06:58:28;;;;;;;57.53;39.58;;;;;;;;;;5049876;28;20040;-64
2023/08/25 07:00:54;;;;;;;58.63;42.45;;;;;;;;;;5047838;28;20117;-64
2023/08/25 07:03:20;;;;;;;56.80;40.50;;;;;;;;;;5050460;28;20059;-65
2023/08/25 07:05:47;;;;;;;60.58;42.40;;;;;;;;;;5050307;28;20088;-64
2023/08/25 07:08:13;;;;;;;51.75;38.92;;;;;;;;;;5049047;28;20028;-64
2023/08/25 07:10:39;;;;;;;53.47;38.92;;;;;;;;;;5051548;28;22084;-64
2023/08/25 07:13:05;;;;;;;52.75;37.08;;;;;;;;;;5051337;28;20017;-64
2023/08/25 07:15:31;;;;;;;54.97;37.70;;;;;;;;;;5052262;28;20032;-64
2023/08/25 07:17:57;;;;;;;48.97;36.67;;;;;;;;;;5051649;28;20507;-64
2023/08/25 07:20:24;;;;;;;49.85;35.53;;;;;;;;;;5052240;28;20041;-64
2023/08/25 07:22:50;;;;;;;45.97;33.80;;;;;;;;;;5051817;28;20036;-64
2023/08/25 07:25:16;;;;;;;41.30;29.60;;;;;;;;;;5052228;28;20032;-64
2023/08/25 07:27:42;;;;;;;38.08;26.20;;;;;;;;;;5049783;28;20048;-64
2023/08/25 07:30:08;;;;;;;38.05;24.30;;;;;;;;;;5054578;28;20036;-67
2023/08/25 07:32:34;;;;;;;34.00;23.40;;;;;;;;;;5053917;28;21867;-68
2023/08/25 07:35:00;;;;;;;34.20;24.98;;;;;;;;;;5054766;28;20147;-67
2023/08/25 07:37:26;;;;;;;36.38;26.08;;;;;;;;;;5054156;28;20050;-67
2023/08/25 07:39:54;;;;;;;34.90;26.50;;;;;;;;;;5052734;28;20032;-67
2023/08/25 07:42:21;;;;;;;39.45;28.52;;;;;;;;;;5054921;28;20031;-67
2023/08/25 07:44:48;;;;;;;37.47;28.23;;;;;;;;;;5049990;28;20036;-67
2023/08/25 07:47:14;;;;;;;41.83;30.23;;;;;;;;;;5052966;28;20034;-67
2023/08/25 07:49:43;;;;;;;40.35;29.92;;;;;;;;;;5053950;28;20074;-67
2023/08/25 07:52:10;;;;;;;36.08;27.77;;;;;;;;;;5051671;28;20044;-67
2023/08/25 07:54:36;;;;;;;34.40;27.75;;;;;;;;;;5052569;28;20032;-67
2023/08/25 07:57:02;;;;;;;36.65;27.63;;;;;;;;;;5053390;28;20627;-67
2023/08/25 07:59:30;;;;;;;35.15;26.77;;;;;;;;;;5055207;28;20032;-67
2023/08/25 08:01:56;;;;;;;32.70;24.90;;;;;;;;;;5052489;28;20081;-67
2023/08/25 08:04:22;;;;;;;33.72;25.17;;;;;;;;;;5053731;28;20960;-67
2023/08/25 08:06:49;;;;;;;35.90;26.42;;;;;;;;;;5052549;28;20035;-67
2023/08/25 08:09:15;;;;;;;34.65;27.73;;;;;;;;;;5052801;28;20031;-67
2023/08/25 08:11:41;;;;;;;34.13;27.60;;;;;;;;;;5053666;28;20028;-67
2023/08/25 08:14:07;;;;;;;36.80;29.08;;;;;;;;;;5052743;28;20620;-67
2023/08/25 08:16:33;;;;;;;38.00;29.45;;;;;;;;;;5052729;28;20059;-67
2023/08/25 08:18:59;;;;;;;36.55;27.77;;;;;;;;;;5055320;28;20036;-67
2023/08/25 08:21:25;;;;;;;34.88;29.00;;;;;;;;;;5053152;28;20028;-68
2023/08/25 08:23:51;;;;;;;33.83;26.33;;;;;;;;;;5051783;28;20109;-67
2023/08/25 08:26:18;;;;;;;30.70;23.52;;;;;;;;;;5052081;28;20050;-67
2023/08/25 08:28:44;;;;;;;32.65;23.00;;;;;;;;;;5052303;28;20051;-67
2023/08/25 08:31:17;;;;;;;34.80;21.83;;;;;;;;;;5048432;28;20036;-64
2023/08/25 08:33:43;;;;;;;33.80;23.42;;;;;;;;;;5050409;28;20091;-64
2023/08/25 08:36:09;;;;;;;26.45;21.77;;;;;;;;;;5048442;28;20097;-64
2023/08/25 08:38:36;;;;;;;26.02;22.13;;;;;;;;;;5049168;28;20028;-64
2023/08/25 08:41:03;;;;;;;29.58;23.08;;;;;;;;;;5052429;28;20586;-64
2023/08/25 08:43:32;;;;;;;29.98;24.90;;;;;;;;;;5050910;28;20032;-64
2023/08/25 08:45:59;;;;;;;29.88;24.60;;;;;;;;;;5052040;28;20109;-64
2023/08/25 08:48:25;;;;;;;32.13;23.40;;;;;;;;;;5051858;28;20490;-64
2023/08/25 08:50:52;;;;;;;31.60;24.77;;;;;;;;;;5051759;28;20620;-64
2023/08/25 08:53:18;;;;;;;32.25;23.73;;;;;;;;;;5051469;28;20554;-64
2023/08/25 08:55:46;;;;;;;34.65;24.80;;;;;;;;;;5049947;28;20040;-64
2023/08/25 08:58:12;;;;;;;29.63;24.63;;;;;;;;;;5050768;28;20024;-64
2023/08/25 09:00:40;;;;;;;28.60;22.80;;;;;;;;;;5051504;28;20123;-64
2023/08/25 09:03:09;;;;;;;32.53;23.80;;;;;;;;;;5051652;28;20043;-64
2023/08/25 09:05:37;;;;;;;35.17;22.83;;;;;;;;;;5051525;28;20035;-64
2023/08/25 09:08:07;;;;;;;29.52;23.08;;;;;;;;;;5051086;28;20028;-64
2023/08/25 09:10:37;;;;;;;31.52;24.15;;;;;;;;;;5049467;28;20039;-64
2023/08/25 09:13:03;;;;;;;32.75;23.15;;;;;;;;;;5052541;28;20147;-64
2023/08/25 09:15:30;;;;;;;31.70;22.80;;;;;;;;;;5053620;28;20024;-64
2023/08/25 09:18:01;;;;;;;29.92;22.65;;;;;;;;;;5054776;28;20117;-64
2023/08/25 09:20:28;;;;;;;27.88;22.15;;;;;;;;;;5055369;28;20043;-64
2023/08/25 09:22:57;;;;;;;31.85;22.90;;;;;;;;;;5053661;28;20044;-64
2023/08/25 09:25:24;;;;;;;30.75;22.80;;;;;;;;;;5054466;28;20413;-64
2023/08/25 09:27:57;;;;;;;31.02;23.23;;;;;;;;;;5053539;28;20058;-64
2023/08/25 09:30:33;;;;;;;30.10;22.23;;;;;;;;;;5053759;28;20032;-64
2023/08/25 09:33:18;;;;;;;30.80;22.70;;;;;;;;;;5054087;28;20043;-64
2023/08/25 09:35:44;;;;;;;31.33;23.17;;;;;;;;;;5053520;28;20028;-64
2023/08/25 09:38:23;;;;;;;29.33;22.00;;;;;;;;;;5053547;28;20116;-64
2023/08/25 09:40:49;;;;;;;30.40;23.42;;;;;;;;;;5060661;28;20036;-64
2023/08/25 09:43:15;;;;;;;38.42;25.25;;;;;;;;;;5061261;28;20085;-64
2023/08/25 09:45:41;;;;;;;30.90;24.10;;;;;;;;;;5061584;28;20107;-64
2023/08/25 09:48:07;;;;;;;34.75;24.83;;;;;;;;;;5061153;28;20123;-64
2023/08/25 09:50:40;;;;;;;33.78;25.02;;;;;;;;;;5059925;28;20060;-64
2023/08/25 09:53:07;;;;;;;31.67;24.20;;;;;;;;;;5052159;28;20051;-64
2023/08/25 09:55:37;;;;;;;34.88;25.73;;;;;;;;;;5051851;28;20074;-64
2023/08/25 09:58:11;;;;;;;31.77;25.70;;;;;;;;;;5053619;28;20083;-64
2023/08/25 10:00:39;;;;;;;34.63;24.17;;;;;;;;;;5051214;28;20105;-64
2023/08/25 10:03:06;;;;;;;35.40;27.20;;;;;;;;;;5050994;28;20047;-64
2023/08/25 10:05:32;;;;;;;33.67;25.50;;;;;;;;;;5051707;28;20077;-66
2023/08/25 10:07:59;;;;;;;36.72;25.50;;;;;;;;;;5053066;28;20032;-67
2023/08/25 10:10:27;;;;;;;31.83;25.25;;;;;;;;;;5054019;28;20067;-67
2023/08/25 10:12:57;;;;;;;29.52;23.45;;;;;;;;;;5053230;28;20813;-67
2023/08/25 10:15:24;;;;;;;32.08;24.15;;;;;;;;;;5052277;28;20036;-66
2023/08/25 10:17:54;;;;;;;34.63;24.83;;;;;;;;;;5053032;28;20036;-66
2023/08/25 10:20:22;;;;;;;31.58;23.85;;;;;;;;;;5051991;28;20476;-66
2023/08/25 10:22:49;;;;;;;32.72;25.08;;;;;;;;;;5051843;28;20036;-66
2023/08/25 10:25:16;;;;;;;32.22;24.50;;;;;;;;;;5051852;28;20078;-66
2023/08/25 10:27:42;;;;;;;35.00;24.25;;;;;;;;;;5051697;28;20041;-66
2023/08/25 10:30:11;;;;;;;42.03;25.40;;;;;;;;;;5052160;28;20542;-66
2023/08/25 10:32:51;;;;;;;32.45;24.73;;;;;;;;;;5051516;28;20434;-67
2023/08/25 10:35:37;;;;;;;33.42;24.58;;;;;;;;;;5049349;28;20585;-67
2023/08/25 10:38:03;;;;;;;34.55;25.58;;;;;;;;;;5050250;28;20035;-66
2023/08/25 10:40:42;;;;;;;31.40;24.88;;;;;;;;;;5052534;28;20025;-66
2023/08/25 10:43:27;;;;;;;33.92;27.15;;;;;;;;;;5050619;28;20036;-66
2023/08/25 10:45:54;;;;;;;33.97;26.38;;;;;;;;;;5034458;28;20139;-67
2023/08/25 10:48:20;;;;;;;37.72;28.58;;;;;;;;;;5051741;28;20036;-67
2023/08/25 10:50:47;;;;;;;37.25;28.45;;;;;;;;;;5052151;28;20036;-67
2023/08/25 10:53:32;;;;;;;38.95;29.00;;;;;;;;;;5046369;28;20146;-67
2023/08/25 10:56:12;;;;;;;36.90;28.30;;;;;;;;;;5051711;28;20040;-67
2023/08/25 10:58:39;;;;;;;42.08;29.42;;;;;;;;;;5051808;28;20036;-67
2023/08/25 11:01:05;;;;;;;41.38;30.25;;;;;;;;;;5049834;28;20055;-67
2023/08/25 11:03:48;;;;;;;43.92;32.60;;;;;;;;;;5048955;28;20035;-67
2023/08/25 11:06:40;;;;;;;42.65;32.05;;;;;;;;;;5050461;28;20028;-67
2023/08/25 11:09:27;;;;;;;50.67;34.33;;;;;;;;;;5045218;28;20102;-68
2023/08/25 11:11:57;;;;;;;49.38;34.17;;;;;;;;;;5035065;28;20066;-69
2023/08/25 11:14:30;;;;;;;50.20;37.45;;;;;;;;;;5049683;28;20081;-68
2023/08/25 11:16:57;;;;;;;55.53;38.58;;;;;;;;;;5048564;28;21169;-68
2023/08/25 11:19:25;;;;;;;51.90;38.80;;;;;;;;;;5049896;28;21047;-68
2023/08/25 11:21:59;;;;;;;47.13;36.70;;;;;;;;;;5049917;28;20080;-68
2023/08/25 11:24:25;;;;;;;46.25;35.13;;;;;;;;;;5048883;28;20151;-68
2023/08/25 11:26:51;;;;;;;46.72;36.72;;;;;;;;;;5048482;28;20052;-68
2023/08/25 11:29:18;;;;;;;52.42;38.60;;;;;;;;;;5044753;28;20055;-69
2023/08/25 11:31:44;;;;;;;53.88;38.65;;;;;;;;;;5047195;28;20032;-68
2023/08/25 11:34:11;;;;;;;54.50;39.15;;;;;;;;;;5048418;28;20024;-69
2023/08/25 11:36:37;;;;;;;51.60;38.17;;;;;;;;;;5048355;28;20028;-69
2023/08/25 11:39:03;;;;;;;58.08;40.28;;;;;;;;;;5047886;28;20739;-69
2023/08/25 11:41:29;;;;;;;50.13;35.92;;;;;;;;;;5049639;28;20119;-69
2023/08/25 11:43:58;;;;;;;47.58;35.30;;;;;;;;;;5050035;28;20047;-69
2023/08/25 11:46:25;;;;;;;48.45;37.33;;;;;;;;;;5063401;28;20044;-70
2023/08/25 11:48:53;;;;;;;46.00;33.53;;;;;;;;;;5048199;28;20032;-70
2023/08/25 11:51:19;;;;;;;47.40;35.40;;;;;;;;;;5047261;28;20129;-69
2023/08/25 11:53:45;;;;;;;53.33;39.63;;;;;;;;;;5049190;28;20032;-69
2023/08/25 11:56:16;;;;;;;48.25;35.85;;;;;;;;;;5048831;28;20105;-69
2023/08/25 11:58:42;;;;;;;49.13;35.53;;;;;;;;;;5050350;28;21613;-69
2023/08/25 12:01:10;;;;;;;50.60;37.78;;;;;;;;;;5047530;28;20040;-69
2023/08/25 12:03:43;;;;;;;48.72;37.83;;;;;;;;;;5048838;28;20036;-69
2023/08/25 12:06:10;;;;;;;55.67;39.25;;;;;;;;;;5050445;28;20048;-69
2023/08/25 12:08:39;;;;;;;59.70;43.05;;;;;;;;;;5048944;28;20024;-69
2023/08/25 12:11:10;;;;;;;55.63;39.85;;;;;;;;;;5046807;28;21669;-69
2023/08/25 12:13:41;;;;;;;50.80;37.60;;;;;;;;;;5047161;28;21715;-69
2023/08/25 12:16:07;;;;;;;52.80;36.03;;;;;;;;;;5040171;28;20156;-69
2023/08/25 12:18:34;;;;;;;44.53;36.65;;;;;;;;;;5047607;28;20043;-69
2023/08/25 12:21:01;;;;;;;44.58;37.42;;;;;;;;;;5048248;28;20461;-69
2023/08/25 12:23:32;;;;;;;52.15;38.13;;;;;;;;;;5048637;28;21237;-69
2023/08/25 12:25:59;;;;;;;49.63;39.05;;;;;;;;;;5048356;28;20038;-69
2023/08/25 12:28:25;;;;;;;59.25;41.45;;;;;;;;;;5049521;28;20047;-69
2023/08/25 12:30:51;;;;;;;47.45;37.13;;;;;;;;;;5066057;28;20028;-69
2023/08/25 12:33:17;;;;;;;49.97;38.95;;;;;;;;;;5047739;28;20094;-69
2023/08/25 12:35:43;;;;;;;43.65;36.50;;;;;;;;;;5048533;28;20116;-69
2023/08/25 12:38:09;;;;;;;47.50;38.25;;;;;;;;;;5048639;28;21738;-69
2023/08/25 12:40:36;;;;;;;49.22;38.03;;;;;;;;;;5065607;28;22003;-69
2023/08/25 12:43:04;;;;;;;45.25;35.55;;;;;;;;;;5048109;28;20051;-69
2023/08/25 12:45:30;;;;;;;42.58;34.42;;;;;;;;;;5047401;28;20036;-68
2023/08/25 12:47:56;;;;;;;40.75;32.70;;;;;;;;;;5048583;28;20067;-69
2023/08/25 12:50:23;;;;;;;35.97;30.90;;;;;;;;;;5050371;28;20758;-69
2023/08/25 12:52:50;;;;;;;45.13;35.05;;;;;;;;;;5052503;28;20131;-69
2023/08/25 12:55:16;;;;;;;39.88;32.40;;;;;;;;;;5053466;28;20043;-68
2023/08/25 12:57:43;;;;;;;43.78;33.45;;;;;;;;;;5054870;28;20633;-68
2023/08/25 13:00:10;;;;;;;40.90;32.60;;;;;;;;;;5054872;28;20032;-68
2023/08/25 13:02:36;;;;;;;41.13;31.75;;;;;;;;;;5054398;28;20041;-68
2023/08/25 13:05:03;;;;;;;35.28;29.20;;;;;;;;;;5055973;28;20025;-68
2023/08/25 13:07:29;;;;;;;34.75;27.55;;;;;;;;;;5060894;28;20478;-68
2023/08/25 13:09:55;;;;;;;36.70;27.73;;;;;;;;;;5055951;28;20685;-68
2023/08/25 13:12:21;;;;;;;39.05;28.25;;;;;;;;;;5062089;28;20123;-68
2023/08/25 13:14:47;;;;;;;32.67;26.48;;;;;;;;;;5063114;28;20044;-68
2023/08/25 13:17:13;;;;;;;34.47;26.10;;;;;;;;;;5061389;28;20032;-68
2023/08/25 13:19:39;;;;;;;34.97;26.10;;;;;;;;;;5062087;28;20043;-68
2023/08/25 13:22:08;;;;;;;34.85;26.70;;;;;;;;;;5062913;28;20474;-68
2023/08/25 13:24:34;;;;;;;37.80;26.70;;;;;;;;;;5062023;28;20040;-68
2023/08/25 13:27:00;;;;;;;29.17;23.30;;;;;;;;;;5061313;28;20043;-68
2023/08/25 13:29:26;;;;;;;33.97;23.73;;;;;;;;;;5062720;28;20554;-68
2023/08/25 13:31:52;;;;;;;29.88;23.90;;;;;;;;;;5064915;28;20545;-68
2023/08/25 13:34:18;;;;;;;34.55;23.40;;;;;;;;;;5063217;28;20110;-68
2023/08/25 13:36:44;;;;;;;35.13;24.00;;;;;;;;;;5062885;28;20043;-68
2023/08/25 13:39:10;;;;;;;35.20;26.27;;;;;;;;;;5062858;28;20612;-68
2023/08/25 13:41:39;;;;;;;30.90;24.33;;;;;;;;;;5061391;28;20047;-68
2023/08/25 13:44:06;;;;;;;28.88;22.10;;;;;;;;;;5062039;28;21803;-68
2023/08/25 13:46:32;;;;;;;30.70;22.58;;;;;;;;;;5062354;28;20479;-68
2023/08/25 13:48:58;;;;;;;29.92;21.55;;;;;;;;;;5062052;28;20074;-68
2023/08/25 13:51:24;;;;;;;31.98;22.58;;;;;;;;;;5062741;28;20075;-68
2023/08/25 13:53:50;;;;;;;31.88;22.75;;;;;;;;;;5062875;28;20826;-68
2023/08/25 13:56:17;;;;;;;28.08;21.05;;;;;;;;;;5061230;28;20356;-68
2023/08/25 13:58:43;;;;;;;29.55;21.55;;;;;;;;;;5062511;28;20588;-67
2023/08/25 14:01:09;;;;;;;33.13;21.25;;;;;;;;;;5063941;28;20032;-67
2023/08/25 14:03:35;;;;;;;30.98;22.05;;;;;;;;;;5063104;28;20032;-67
2023/08/25 14:06:01;;;;;;;29.92;22.95;;;;;;;;;;5061939;28;20027;-67
2023/08/25 14:08:27;;;;;;;28.38;22.60;;;;;;;;;;5061095;28;20046;-67
2023/08/25 14:10:54;;;;;;;32.05;23.77;;;;;;;;;;5061762;28;20029;-68
2023/08/25 14:13:20;;;;;;;25.50;21.98;;;;;;;;;;5061321;28;21866;-68
2023/08/25 14:15:46;;;;;;;27.90;21.75;;;;;;;;;;5061497;28;20017;-68
2023/08/25 14:18:13;;;;;;;31.67;22.05;;;;;;;;;;5060567;28;20070;-67